Terminal Aerodrome Forecast
Issued by NWS

Home | Current Version | Previous Version | Text Only | Print | Product List | Glossary On
Versions: 1 2 3 4 5 6 7 8 9 10 11 12 13 14 15 16 17 18 19 20 21 22 23 24 25 26 27 28 29 30 31 32 33 34 35 36 37 38 39 40 41 42 43 44
000
FTUS46 KPQR 281130
TAFONP
TAF
KONP 281130Z 2812/0112 VRB03KT P6SM MIFG SCT002 BKN120
      TEMPO 2812/2815 2SM BR BKN002
     FM281500 05008KT P6SM SCT120
     FM281900 01012KT P6SM SKC
     FM010400 06006KT P6SM SKC=

USA.gov is the U.S. government's official web portal to all federal, state and local government web resources and services.